Time;durP1;ratioP1;P1;durP2;ratioP2;P2;SDS_P1;SDS_P2;PMS_P1;PMS_P2;Temp;Humidity;BMP_temperature;BMP_pressure;BME280_temperature;BME280_humidity;BME280_pressure;Samples;Min_cycle;Max_cycle;Signal;HPM_P1;HPM_P2
2022/12/27 00:01:55;;;;;;;40.70;18.52;;;7.10;99.90;;;;;;5033856;28;20099;-63
2022/12/27 00:04:20;;;;;;;42.72;20.98;;;7.00;99.90;;;;;;5034302;28;20100;-63
2022/12/27 00:06:46;;;;;;;42.90;18.88;;;7.00;99.90;;;;;;5033992;28;20144;-64
2022/12/27 00:09:12;;;;;;;32.67;12.73;;;6.90;99.90;;;;;;5035759;28;20418;-63
2022/12/27 00:11:38;;;;;;;32.05;12.05;;;7.00;99.90;;;;;;5053838;28;20098;-63
2022/12/27 00:14:05;;;;;;;22.02;10.68;;;6.80;99.90;;;;;;5053626;28;20525;-64
2022/12/27 00:16:32;;;;;;;20.38;9.18;;;6.70;99.90;;;;;;5053639;28;20402;-64
2022/12/27 00:18:58;;;;;;;17.33;5.35;;;6.70;99.90;;;;;;5053521;28;20033;-63
2022/12/27 00:21:24;;;;;;;12.43;4.78;;;6.60;99.90;;;;;;5053911;28;20032;-64
2022/12/27 00:23:56;;;;;;;10.45;4.60;;;6.60;99.90;;;;;;5053462;28;20037;-63
2022/12/27 00:26:33;;;;;;;12.82;4.93;;;6.50;99.90;;;;;;5053339;28;20024;-63
2022/12/27 00:29:00;;;;;;;10.50;5.40;;;6.40;99.90;;;;;;5053289;28;20029;-64
2022/12/27 00:31:28;;;;;;;9.50;4.88;;;6.30;99.90;;;;;;5053441;28;20396;-63
2022/12/27 00:33:55;;;;;;;22.15;11.43;;;6.40;99.90;;;;;;5053216;28;20029;-63
2022/12/27 00:36:24;;;;;;;31.52;19.02;;;6.30;99.90;;;;;;5053265;28;20079;-63
2022/12/27 00:38:51;;;;;;;33.70;21.83;;;6.30;99.90;;;;;;5052941;28;20045;-63
2022/12/27 00:41:17;;;;;;;29.60;19.08;;;6.30;99.90;;;;;;5053068;28;20147;-64
2022/12/27 00:43:44;;;;;;;30.70;17.83;;;6.30;99.90;;;;;;5053023;28;20043;-64
2022/12/27 00:46:10;;;;;;;25.45;15.55;;;6.20;99.90;;;;;;5052967;28;20028;-64
2022/12/27 00:48:36;;;;;;;23.55;13.68;;;6.30;99.90;;;;;;5052617;28;20029;-64
2022/12/27 00:51:07;;;;;;;23.75;14.45;;;6.20;99.90;;;;;;5053523;28;20029;-63
2022/12/27 00:53:34;;;;;;;23.33;15.77;;;6.10;99.90;;;;;;5052733;28;20028;-64
2022/12/27 00:56:04;;;;;;;31.48;15.48;;;6.10;99.90;;;;;;5052961;28;20482;-63
2022/12/27 00:58:30;;;;;;;34.45;16.95;;;6.20;99.90;;;;;;5052740;28;20033;-64
2022/12/27 01:01:06;;;;;;;20.50;7.72;;;6.20;99.90;;;;;;5052747;28;20035;-63
2022/12/27 01:03:31;;;;;;;14.57;5.25;;;6.10;99.90;;;;;;5053067;28;20044;-64
2022/12/27 01:06:06;;;;;;;32.55;6.40;;;6.00;99.90;;;;;;5052609;28;20067;-64
2022/12/27 01:08:31;;;;;;;15.20;5.35;;;6.00;99.90;;;;;;5052301;28;20021;-63
2022/12/27 01:10:58;;;;;;;24.25;8.25;;;6.00;99.90;;;;;;5052074;28;20041;-63
2022/12/27 01:13:24;;;;;;;20.30;6.35;;;6.00;99.90;;;;;;5052899;28;20456;-63
2022/12/27 01:15:49;;;;;;;36.08;6.97;;;5.90;99.90;;;;;;5052421;28;20036;-63
2022/12/27 01:18:15;;;;;;;47.90;6.43;;;5.80;99.90;;;;;;5052477;28;20486;-63
2022/12/27 01:20:41;;;;;;;21.40;6.72;;;5.80;99.90;;;;;;5052786;28;20029;-63
2022/12/27 01:23:06;;;;;;;22.38;8.93;;;5.80;99.90;;;;;;5052296;28;20025;-64
2022/12/27 01:25:32;;;;;;;19.95;8.10;;;5.60;99.90;;;;;;5051938;28;20104;-63
2022/12/27 01:27:58;;;;;;;20.02;7.97;;;5.50;99.90;;;;;;5052542;28;20017;-64
2022/12/27 01:30:23;;;;;;;22.58;8.77;;;5.60;99.90;;;;;;5052392;28;20471;-63
2022/12/27 01:32:49;;;;;;;15.82;7.20;;;5.60;99.90;;;;;;5052267;28;20029;-63
2022/12/27 01:35:15;;;;;;;13.30;6.82;;;5.70;99.90;;;;;;5052302;28;20036;-64
2022/12/27 01:37:40;;;;;;;13.13;5.28;;;5.70;99.90;;;;;;5052049;28;20389;-64
2022/12/27 01:40:07;;;;;;;12.60;5.13;;;5.70;99.90;;;;;;5051771;28;20474;-63
2022/12/27 01:42:51;;;;;;;13.00;3.90;;;5.60;99.90;;;;;;5052461;28;20029;-64
2022/12/27 01:45:35;;;;;;;12.70;4.55;;;5.70;99.90;;;;;;5052535;28;20025;-63
2022/12/27 01:48:27;;;;;;;17.55;5.07;;;5.60;99.90;;;;;;5052061;28;20021;-63
2022/12/27 01:50:59;;;;;;;16.10;4.38;;;5.50;99.90;;;;;;5050792;28;20513;-63
2022/12/27 01:53:31;;;;;;;16.25;4.78;;;5.40;99.90;;;;;;5051912;28;20025;-63
2022/12/27 01:56:03;;;;;;;13.23;5.10;;;5.50;99.90;;;;;;5051683;28;20390;-63
2022/12/27 01:58:37;;;;;;;13.80;6.40;;;5.50;99.90;;;;;;5051964;28;20094;-63
2022/12/27 02:01:06;;;;;;;13.95;5.18;;;5.50;99.90;;;;;;5055264;28;20021;-63
2022/12/27 02:03:36;;;;;;;13.30;6.13;;;5.50;99.90;;;;;;5056288;28;20489;-63
2022/12/27 02:06:04;;;;;;;19.75;8.05;;;5.60;99.90;;;;;;5055984;28;20025;-63
2022/12/27 02:08:55;;;;;;;21.98;8.95;;;5.70;99.90;;;;;;5056287;28;20096;-63
2022/12/27 02:14:12;;;;;;;11.35;5.82;;;5.90;99.90;;;;;;5055888;28;20382;-63
2022/12/27 02:16:38;;;;;;;21.55;7.28;;;5.90;99.90;;;;;;5056187;28;20021;-63
2022/12/27 02:19:29;;;;;;;16.13;7.20;;;5.90;99.90;;;;;;5055562;28;20521;-63
2022/12/27 02:22:10;;;;;;;16.98;7.88;;;5.90;99.90;;;;;;5055584;28;20094;-63
2022/12/27 02:24:57;;;;;;;12.60;6.30;;;5.90;99.90;;;;;;5055500;28;20033;-63
2022/12/27 02:27:43;;;;;;;39.72;14.75;;;6.00;99.90;;;;;;5055571;28;20049;-63
2022/12/27 02:30:11;;;;;;;24.33;9.88;;;6.10;99.90;;;;;;5035648;28;20052;-63
2022/12/27 02:32:44;;;;;;;16.92;6.70;;;6.20;99.90;;;;;;5035684;28;20109;-64
2022/12/27 02:35:38;;;;;;;16.85;6.10;;;6.20;99.90;;;;;;5035527;28;20092;-63
2022/12/27 02:38:10;;;;;;;24.75;11.40;;;6.30;99.90;;;;;;5034468;28;20042;-63
2022/12/27 02:53:02;;;;;;;22.55;8.35;;;6.50;99.90;;;;;;5013273;28;20557;-63
2022/12/27 02:58:58;;;;;;;10.68;6.20;;;6.50;99.90;;;;;;5013504;28;20045;-64
2022/12/27 03:04:44;;;;;;;13.05;6.93;;;6.60;99.90;;;;;;5013164;28;20133;-64
2022/12/27 03:07:24;;;;;;;13.07;6.85;;;6.60;99.90;;;;;;4935103;29;20496;-63
2022/12/27 03:16:08;;;;;;;11.65;5.65;;;6.80;99.90;;;;;;4954529;29;20138;-63
2022/12/27 03:18:36;;;;;;;8.27;5.47;;;6.90;99.90;;;;;;4954175;29;20054;-64
2022/12/27 03:26:41;;;;;;;12.35;6.10;;;6.90;99.90;;;;;;4968530;28;20533;-64
2022/12/27 03:34:44;;;;;;;11.13;4.40;;;6.90;99.90;;;;;;4973443;28;20030;-63
2022/12/27 03:40:07;;;;;;;10.30;5.20;;;6.70;99.90;;;;;;4973630;28;20077;-64
2022/12/27 03:46:32;;;;;;;10.35;4.20;;;6.70;99.90;;;;;;5054649;28;20027;-63
2022/12/27 03:48:13;;;;;;;10.80;3.40;;;6.70;99.90;;;;;;5053920;28;20083;-64
2022/12/27 03:50:45;;;;;;;6.50;3.90;;;6.60;99.90;;;;;;5053398;28;20032;-64
2022/12/27 03:53:16;;;;;;;10.98;3.00;;;6.60;99.90;;;;;;5054402;28;20036;-64
2022/12/27 03:55:42;;;;;;;10.75;3.40;;;6.60;99.90;;;;;;5054325;28;20032;-64
2022/12/27 03:58:08;;;;;;;8.40;3.80;;;6.60;99.90;;;;;;5053949;28;20485;-63
2022/12/27 04:00:34;;;;;;;13.82;4.30;;;6.70;99.90;;;;;;5053961;28;20105;-63
2022/12/27 04:03:00;;;;;;;6.93;3.35;;;6.80;99.90;;;;;;5053721;28;20020;-64
2022/12/27 04:05:25;;;;;;;5.80;3.38;;;6.80;99.90;;;;;;5053519;28;20036;-63
2022/12/27 04:35:12;;;;;;;;;;;7.20;99.90;;;;;;5054053;28;20035;-63
2022/12/27 04:37:38;;;;;;;8.35;3.50;;;7.30;99.90;;;;;;5053171;28;19905;-64
2022/12/27 04:56:42;;;;;;;7.63;2.70;;;7.40;99.90;;;;;;5050941;28;20091;-63
2022/12/27 05:02:04;;;;;;;8.80;2.97;;;7.50;99.90;;;;;;5050963;28;20058;-63
2022/12/27 05:04:31;;;;;;;12.90;7.55;;;7.40;99.90;;;;;;5050660;28;20039;-63
2022/12/27 05:13:58;;;;;;;17.77;10.80;;;7.50;99.90;;;;;;5050594;28;20032;-64
2022/12/27 05:15:12;;;;;;;31.38;27.63;;;7.60;99.90;;;;;;5050010;28;20040;-64
2022/12/27 05:17:37;;;;;;;16.45;11.07;;;7.60;99.90;;;;;;5050409;28;20041;-63
2022/12/27 05:20:03;;;;;;;8.43;3.67;;;7.60;99.90;;;;;;5050314;28;20072;-63
2022/12/27 05:27:57;;;;;;;;;;;7.60;99.90;;;;;;5016664;28;20398;-63
2022/12/27 05:30:23;;;;;;;9.27;3.35;;;7.60;99.90;;;;;;5032313;28;19905;-63
2022/12/27 05:32:48;;;;;;;10.52;5.05;;;7.60;99.90;;;;;;5032299;28;20622;-64
2022/12/27 05:35:14;;;;;;;18.88;12.75;;;7.70;99.90;;;;;;5032351;28;20025;-63
2022/12/27 05:37:40;;;;;;;14.48;11.25;;;7.70;99.90;;;;;;5032368;28;20030;-63
2022/12/27 05:40:06;;;;;;;12.70;8.77;;;7.70;99.90;;;;;;5030966;28;20033;-63
2022/12/27 05:42:32;;;;;;;16.80;11.75;;;7.80;99.90;;;;;;5032275;28;20013;-64
2022/12/27 05:44:57;;;;;;;14.45;11.00;;;7.80;99.90;;;;;;5032527;28;20048;-64
2022/12/27 05:47:23;;;;;;;14.77;9.93;;;7.80;99.90;;;;;;5031858;28;20018;-64
2022/12/27 05:49:49;;;;;;;15.05;9.75;;;7.90;99.90;;;;;;5032162;28;20029;-63
2022/12/27 05:52:15;;;;;;;13.80;8.80;;;7.90;99.90;;;;;;5031992;28;20040;-63
2022/12/27 05:54:40;;;;;;;10.73;7.45;;;7.90;99.90;;;;;;5032419;28;20055;-63
2022/12/27 05:57:06;;;;;;;10.20;5.90;;;7.90;99.90;;;;;;5032301;28;20025;-63
2022/12/27 05:59:31;;;;;;;13.70;5.53;;;7.90;99.90;;;;;;5032041;28;20478;-63
2022/12/27 06:01:57;;;;;;;9.25;6.15;;;7.90;99.90;;;;;;5031577;28;20026;-63
2022/12/27 06:04:23;;;;;;;11.10;6.22;;;7.90;99.90;;;;;;5032393;28;20030;-63
2022/12/27 06:06:48;;;;;;;10.05;5.53;;;7.90;99.90;;;;;;5031971;28;20029;-63
2022/12/27 06:09:14;;;;;;;9.43;6.10;;;7.90;99.90;;;;;;5037961;28;20049;-64
2022/12/27 06:11:40;;;;;;;10.05;6.45;;;7.90;99.90;;;;;;5052232;28;20029;-64
2022/12/27 06:14:06;;;;;;;12.50;7.15;;;7.90;99.90;;;;;;5051699;28;20112;-64
2022/12/27 06:16:31;;;;;;;11.93;6.57;;;8.00;99.90;;;;;;5051568;28;20052;-63
2022/12/27 06:18:57;;;;;;;12.98;6.95;;;8.10;99.90;;;;;;5051711;28;20044;-63
2022/12/27 06:21:23;;;;;;;16.10;10.90;;;8.10;99.90;;;;;;5051682;28;20075;-63
2022/12/27 06:23:49;;;;;;;22.40;18.83;;;8.00;99.90;;;;;;5051770;28;20029;-64
2022/12/27 06:26:20;;;;;;;22.33;18.13;;;8.10;99.90;;;;;;5052072;28;20444;-64
2022/12/27 06:28:48;;;;;;;24.80;17.55;;;8.10;99.90;;;;;;5051669;28;20104;-63
2022/12/27 06:31:14;;;;;;;13.48;8.98;;;8.10;99.90;;;;;;5051438;28;20027;-63
2022/12/27 06:33:39;;;;;;;12.30;7.15;;;8.10;99.90;;;;;;5050522;28;20029;-64
2022/12/27 06:36:10;;;;;;;17.40;8.45;;;8.10;99.90;;;;;;5051684;28;20021;-64
2022/12/27 06:38:37;;;;;;;15.15;8.30;;;8.20;99.90;;;;;;5051445;28;20041;-63
2022/12/27 06:41:08;;;;;;;11.90;7.85;;;8.20;99.90;;;;;;5051729;28;20021;-63
2022/12/27 06:43:34;;;;;;;21.42;14.85;;;8.10;99.90;;;;;;5051424;28;20025;-63
2022/12/27 06:46:03;;;;;;;15.20;13.02;;;8.20;99.90;;;;;;5053137;28;20096;-64
2022/12/27 06:48:29;;;;;;;18.63;14.55;;;8.10;99.90;;;;;;5055394;28;20033;-64
2022/12/27 06:50:55;;;;;;;20.15;15.18;;;8.20;99.90;;;;;;5055179;28;20044;-64
2022/12/27 06:53:21;;;;;;;30.50;21.13;;;8.20;99.90;;;;;;5055171;28;20490;-64
2022/12/27 06:55:47;;;;;;;23.83;17.10;;;8.20;99.90;;;;;;5055242;28;20048;-63
2022/12/27 06:58:13;;;;;;;32.10;18.10;;;8.20;99.90;;;;;;5054886;28;20029;-64
2022/12/27 07:00:40;;;;;;;38.00;23.10;;;8.20;99.90;;;;;;5054662;28;20033;-63
2022/12/27 07:03:06;;;;;;;37.95;22.83;;;8.20;99.90;;;;;;5054894;28;20029;-64
2022/12/27 07:05:35;;;;;;;33.70;20.08;;;8.20;99.90;;;;;;5054859;28;20033;-64
2022/12/27 07:08:01;;;;;;;31.02;20.10;;;8.20;99.90;;;;;;5054833;28;20025;-64
2022/12/27 07:10:27;;;;;;;27.52;18.88;;;8.10;99.90;;;;;;5054652;28;20052;-64
2022/12/27 07:12:52;;;;;;;36.92;26.73;;;8.00;99.90;;;;;;5054547;28;20409;-64
2022/12/27 07:15:18;;;;;;;41.45;29.95;;;8.10;99.90;;;;;;5054769;28;20032;-64
2022/12/27 07:17:44;;;;;;;33.40;22.88;;;8.10;99.90;;;;;;5054696;28;20490;-64
2022/12/27 07:20:10;;;;;;;23.75;16.90;;;8.20;99.90;;;;;;5054688;28;20102;-64
2022/12/27 07:22:35;;;;;;;24.15;17.27;;;8.20;99.90;;;;;;5054648;28;20017;-64
2022/12/27 07:25:01;;;;;;;21.25;14.68;;;8.20;99.90;;;;;;5054945;28;20055;-63
2022/12/27 07:27:27;;;;;;;23.77;15.68;;;8.30;99.90;;;;;;5054555;28;20022;-64
2022/12/27 07:29:52;;;;;;;38.22;25.13;;;8.30;99.90;;;;;;5054090;28;20393;-63
2022/12/27 07:32:18;;;;;;;39.78;25.83;;;8.40;99.90;;;;;;5054856;28;20083;-63
2022/12/27 07:34:44;;;;;;;30.08;20.35;;;8.30;99.90;;;;;;5054410;28;20025;-64
2022/12/27 07:37:09;;;;;;;42.63;34.85;;;8.40;99.90;;;;;;5054454;28;20029;-64
2022/12/27 07:39:35;;;;;;;47.92;39.50;;;8.50;99.90;;;;;;5054112;28;20577;-63
2022/12/27 07:42:01;;;;;;;45.05;30.88;;;8.60;99.90;;;;;;5054243;28;20021;-64
2022/12/27 07:44:26;;;;;;;32.55;21.77;;;8.60;99.90;;;;;;5053976;28;20033;-64
2022/12/27 07:46:52;;;;;;;34.03;21.25;;;8.70;99.90;;;;;;5054688;28;20028;-63
2022/12/27 07:49:18;;;;;;;28.33;19.30;;;8.70;99.90;;;;;;5054228;28;20029;-64
2022/12/27 07:51:43;;;;;;;23.38;16.33;;;8.70;99.90;;;;;;5054105;28;20551;-63
2022/12/27 07:54:09;;;;;;;23.33;18.35;;;8.80;99.90;;;;;;5053971;28;20033;-64
2022/12/27 07:56:35;;;;;;;29.98;23.15;;;8.80;99.90;;;;;;5053736;28;20021;-62
2022/12/27 07:59:01;;;;;;;20.05;13.75;;;8.90;99.90;;;;;;5053220;28;20037;-63
2022/12/27 08:02:02;;;;;;;19.77;13.60;;;8.90;99.90;;;;;;5053780;28;20029;-63
2022/12/27 08:04:15;;;;;;;25.40;17.38;;;8.80;99.90;;;;;;5053753;28;20123;-63
2022/12/27 08:06:40;;;;;;;30.48;18.15;;;8.70;99.90;;;;;;5054160;28;20108;-63
2022/12/27 08:09:06;;;;;;;37.05;21.83;;;8.40;99.90;;;;;;5053431;28;20045;-63
2022/12/27 08:11:32;;;;;;;42.03;25.92;;;8.40;99.90;;;;;;5053415;28;20397;-64
2022/12/27 08:13:57;;;;;;;35.33;22.45;;;8.50;99.90;;;;;;5054088;28;20433;-64
2022/12/27 08:16:24;;;;;;;21.95;15.98;;;8.60;99.90;;;;;;5053665;28;20017;-63
2022/12/27 08:18:52;;;;;;;17.45;13.35;;;9.00;99.90;;;;;;5053030;28;20409;-64
2022/12/27 08:21:17;;;;;;;16.15;10.98;;;9.20;99.90;;;;;;5053416;28;20370;-63
2022/12/27 08:23:44;;;;;;;19.10;12.15;;;9.60;99.90;;;;;;5053429;28;20037;-64
2022/12/27 08:26:11;;;;;;;18.23;12.63;;;10.00;99.90;;;;;;5052948;28;20502;-63
2022/12/27 08:28:37;;;;;;;13.60;8.07;;;10.30;99.90;;;;;;5053158;28;20028;-63
2022/12/27 08:31:07;;;;;;;10.80;7.65;;;10.90;99.90;;;;;;5053729;28;20440;-63
2022/12/27 08:33:33;;;;;;;11.70;7.40;;;11.80;99.90;;;;;;5053280;28;20096;-63
2022/12/27 08:36:06;;;;;;;8.90;6.28;;;12.40;99.90;;;;;;5053146;28;20507;-64
2022/12/27 08:38:32;;;;;;;63.05;51.75;;;12.10;99.90;;;;;;5053029;28;20032;-64
2022/12/27 08:40:58;;;;;;;18.08;14.55;;;10.80;99.90;;;;;;5053365;28;20106;-64
2022/12/27 08:43:24;;;;;;;14.75;12.13;;;10.20;99.90;;;;;;5053035;28;20021;-63
2022/12/27 08:45:50;;;;;;;24.38;21.73;;;10.00;99.90;;;;;;5053039;28;20029;-64
2022/12/27 08:48:15;;;;;;;27.98;24.35;;;11.10;99.90;;;;;;5053169;28;20025;-64
2022/12/27 08:50:41;;;;;;;19.63;14.63;;;11.30;99.90;;;;;;5052554;28;20029;-64
2022/12/27 08:53:07;;;;;;;20.27;17.38;;;11.00;99.90;;;;;;5051824;28;20108;-64
2022/12/27 08:55:33;;;;;;;16.02;13.07;;;11.20;99.90;;;;;;5052583;28;20029;-63
2022/12/27 08:58:05;;;;;;;12.98;10.82;;;11.40;99.90;;;;;;5053010;28;20025;-63
2022/12/27 09:00:31;;;;;;;13.25;9.57;;;11.20;99.90;;;;;;5052803;28;20029;-64
2022/12/27 09:02:57;;;;;;;9.82;7.15;;;11.20;99.90;;;;;;5052612;28;20552;-65
2022/12/27 09:05:25;;;;;;;17.02;7.70;;;11.40;99.90;;;;;;5052601;28;20024;-64
2022/12/27 09:07:51;;;;;;;11.15;7.18;;;11.30;99.90;;;;;;5052730;28;20036;-66
2022/12/27 09:10:17;;;;;;;17.40;8.05;;;11.00;99.90;;;;;;5051624;28;20041;-64
2022/12/27 09:12:44;;;;;;;12.13;7.30;;;10.90;99.90;;;;;;5051280;28;20174;-66
2022/12/27 09:15:11;;;;;;;20.80;8.07;;;10.90;99.90;;;;;;5052404;28;20475;-64
2022/12/27 09:17:37;;;;;;;7.60;6.40;;;10.90;99.90;;;;;;5052626;28;20410;-64
2022/12/27 09:20:03;;;;;;;16.23;7.03;;;10.80;99.90;;;;;;5052351;28;20040;-64
2022/12/27 09:22:29;;;;;;;6.63;5.47;;;10.80;99.90;;;;;;5052317;28;20024;-65
2022/12/27 09:24:55;;;;;;;6.45;5.78;;;11.00;99.90;;;;;;5052039;28;20035;-64
2022/12/27 09:27:21;;;;;;;8.00;5.97;;;11.00;99.90;;;;;;5052252;28;20055;-64
2022/12/27 09:29:46;;;;;;;7.88;6.07;;;10.90;99.90;;;;;;5052139;28;20079;-64
2022/12/27 09:32:12;;;;;;;7.80;5.97;;;10.80;99.90;;;;;;5052241;28;20432;-64
2022/12/27 09:34:38;;;;;;;7.70;6.90;;;11.00;99.90;;;;;;5052598;28;20436;-65
2022/12/27 09:37:03;;;;;;;10.35;6.97;;;11.10;99.90;;;;;;5052197;28;20052;-64
2022/12/27 09:39:29;;;;;;;8.93;6.32;;;11.10;99.90;;;;;;5051715;28;20041;-64
2022/12/27 09:42:34;;;;;;;7.97;5.82;;;11.30;99.90;;;;;;5051977;28;20512;-64
2022/12/27 09:45:20;;;;;;;7.00;5.72;;;11.40;99.90;;;;;;5029920;28;20049;-64
2022/12/27 09:48:15;;;;;;;18.92;16.92;;;11.40;99.90;;;;;;5030430;28;20108;-64
2022/12/27 09:50:48;;;;;;;7.10;6.15;;;11.60;99.90;;;;;;5028116;28;20166;-64
2022/12/27 09:53:20;;;;;;;6.75;6.05;;;11.40;99.90;;;;;;5029600;28;20025;-63
2022/12/27 09:55:51;;;;;;;10.68;7.55;;;11.60;99.90;;;;;;5029883;28;20410;-64
2022/12/27 09:58:37;;;;;;;9.18;6.28;;;11.70;99.90;;;;;;5029799;28;20025;-64
2022/12/27 10:01:33;;;;;;;7.93;6.60;;;12.50;99.90;;;;;;5029941;28;20029;-64
2022/12/27 10:03:59;;;;;;;8.88;6.15;;;14.20;99.90;;;;;;5029354;28;20630;-64
2022/12/27 10:06:28;;;;;;;6.03;5.07;;;16.10;99.90;;;;;;5029871;28;20025;-65
2022/12/27 10:09:03;;;;;;;7.80;5.20;;;16.20;99.90;;;;;;5029257;28;20041;-64
2022/12/27 10:11:46;;;;;;;6.05;4.60;;;16.10;99.90;;;;;;5029827;28;20045;-64
2022/12/27 10:14:26;;;;;;;4.75;4.20;;;17.30;99.90;;;;;;5029668;28;20061;-64
2022/12/27 10:17:19;;;;;;;4.20;3.42;;;19.60;99.90;;;;;;5029612;28;20036;-64
2022/12/27 10:20:03;;;;;;;3.60;2.67;;;20.10;99.90;;;;;;4957666;28;20057;-64
2022/12/27 10:22:45;;;;;;;;;;;19.20;99.90;;;;;;4994321;28;20480;-64
2022/12/27 10:25:15;;;;;;;4.78;2.95;;;19.00;99.90;;;;;;4994139;28;19913;-64
2022/12/27 10:27:41;;;;;;;4.70;2.63;;;18.40;99.90;;;;;;4994004;28;20081;-64
2022/12/27 10:30:16;;;;;;;3.75;2.60;;;15.90;99.90;;;;;;4994033;28;20034;-64
2022/12/27 10:32:42;;;;;;;4.90;2.80;;;15.20;99.90;;;;;;4997951;28;20026;-63
2022/12/27 10:35:15;;;;;;;4.78;2.45;;;14.60;99.90;;;;;;4994024;28;20503;-64
2022/12/27 10:37:41;;;;;;;4.10;2.50;;;14.80;99.90;;;;;;4993549;28;20038;-64
2022/12/27 10:40:22;;;;;;;3.78;2.60;;;14.30;99.90;;;;;;4993876;28;20048;-64
2022/12/27 10:43:01;;;;;;;6.20;2.40;;;14.50;99.90;;;;;;4994068;28;20034;-63
2022/12/27 10:45:32;;;;;;;5.30;2.45;;;14.10;99.90;;;;;;4994271;28;20042;-64
2022/12/27 10:48:25;;;;;;;4.97;2.60;;;14.20;99.90;;;;;;4993785;28;20018;-64
2022/12/27 10:51:09;;;;;;;5.63;4.38;;;14.50;99.90;;;;;;4993543;28;20053;-64
2022/12/27 10:53:38;;;;;;;5.50;4.68;;;14.80;99.90;;;;;;4993709;28;20038;-64
2022/12/27 10:56:09;;;;;;;3.35;2.20;;;15.30;99.90;;;;;;5004678;28;20103;-63
2022/12/27 10:58:40;;;;;;;4.07;2.38;;;14.60;99.90;;;;;;5055155;28;20049;-64
2022/12/27 11:01:13;;;;;;;4.05;2.20;;;15.10;99.90;;;;;;5055090;28;20033;-64
2022/12/27 11:03:38;;;;;;;4.63;2.30;;;16.00;99.90;;;;;;5054931;28;20079;-64
2022/12/27 11:06:15;;;;;;;2.67;1.83;;;16.10;99.90;;;;;;5054612;28;20414;-64
2022/12/27 11:08:41;;;;;;;3.30;1.30;;;16.50;99.90;;;;;;5054644;28;20100;-64
2022/12/27 11:11:23;;;;;;;4.82;1.80;;;15.60;99.90;;;;;;5054760;28;20104;-64
2022/12/27 11:13:50;;;;;;;4.18;2.50;;;17.10;99.90;;;;;;5054017;28;20036;-64
2022/12/27 11:16:29;;;;;;;5.22;4.43;;;16.30;99.90;;;;;;5054863;28;20362;-64
2022/12/27 11:18:57;;;;;;;3.17;2.08;;;16.00;99.90;;;;;;5054542;28;20116;-64
2022/12/27 11:21:24;;;;;;;3.10;1.63;;;16.10;99.90;;;;;;5054822;28;20021;-64
2022/12/27 11:23:56;;;;;;;2.50;1.35;;;16.30;99.90;;;;;;5054687;28;20025;-64
2022/12/27 11:26:53;;;;;;;3.75;1.45;;;18.90;99.90;;;;;;5054605;28;20037;-63
2022/12/27 11:29:22;;;;;;;2.95;1.63;;;20.10;99.90;;;;;;5050097;28;20056;-64
2022/12/27 11:31:50;;;;;;;3.83;1.77;;;21.40;99.90;;;;;;5054645;28;20033;-64
2022/12/27 11:34:18;;;;;;;3.22;2.80;;;23.10;99.90;;;;;;5054150;28;20448;-64
2022/12/27 11:36:50;;;;;;;4.55;3.22;;;21.80;99.90;;;;;;5054414;28;20079;-64
2022/12/27 11:39:44;;;;;;;2.92;2.42;;;22.30;99.90;;;;;;5054308;28;20036;-64
2022/12/27 11:42:30;;;;;;;3.30;1.55;;;22.80;99.90;;;;;;5053040;28;20565;-64
2022/12/27 11:45:28;;;;;;;3.55;1.27;;;20.70;99.90;;;;;;5054331;28;20029;-63
2022/12/27 11:48:02;;;;;;;2.50;1.20;;;21.50;99.90;;;;;;5031877;28;20033;-63
2022/12/27 11:50:34;;;;;;;4.40;1.13;;;22.70;99.90;;;;;;5031698;28;20030;-64
2022/12/27 11:53:19;;;;;;;2.20;0.90;;;21.10;99.90;;;;;;5031965;28;20033;-63
2022/12/27 11:56:08;;;;;;;3.78;1.45;;;20.90;99.90;;;;;;5031992;28;20879;-64
2022/12/27 11:58:39;;;;;;;4.00;2.30;;;22.60;99.90;;;;;;5032183;28;20422;-64
2022/12/27 12:01:27;;;;;;;2.65;1.10;;;23.20;99.90;;;;;;5031837;28;20045;-64
2022/12/27 12:04:24;;;;;;;1.55;0.80;;;24.00;99.90;;;;;;5031789;28;20083;-64
2022/12/27 12:07:09;;;;;;;3.88;0.98;;;23.50;99.90;;;;;;5031791;28;20445;-64
2022/12/27 12:09:44;;;;;;;3.35;1.40;;;22.60;99.90;;;;;;5031820;28;20111;-63
2022/12/27 12:12:31;;;;;;;6.57;5.97;;;21.80;99.90;;;;;;5031751;28;20498;-64
2022/12/27 12:15:31;;;;;;;3.38;1.08;;;20.60;99.90;;;;;;5031702;28;20140;-63
2022/12/27 12:18:06;;;;;;;1.80;1.05;;;19.30;99.90;;;;;;4972180;28;20043;-63
2022/12/27 12:20:45;;;;;;;2.92;1.30;;;18.70;99.90;;;;;;4972575;28;20042;-64
2022/12/27 12:23:21;;;;;;;2.90;1.08;;;19.10;99.90;;;;;;4972627;28;20136;-63
2022/12/27 12:25:59;;;;;;;2.78;1.58;;;18.40;99.90;;;;;;4953879;28;20043;-64
2022/12/27 12:29:01;;;;;;;5.05;4.13;;;17.70;99.90;;;;;;4960045;28;20038;-63
2022/12/27 12:31:48;;;;;;;1.25;1.10;;;17.60;99.90;;;;;;4972666;28;20511;-63
2022/12/27 12:34:14;;;;;;;2.63;0.90;;;18.20;99.90;;;;;;4972398;28;20039;-63
2022/12/27 12:36:50;;;;;;;2.83;1.10;;;17.40;99.90;;;;;;4972398;28;20033;-64
2022/12/27 12:39:35;;;;;;;2.10;0.90;;;17.60;99.90;;;;;;4972277;28;20551;-63
2022/12/27 12:42:09;;;;;;;5.68;1.10;;;18.00;99.90;;;;;;4972054;28;20043;-63
2022/12/27 12:45:00;;;;;;;7.47;6.88;;;16.90;99.90;;;;;;4971675;28;20027;-63
2022/12/27 12:47:45;;;;;;;2.35;2.10;;;17.70;99.90;;;;;;4972287;28;20396;-63
2022/12/27 12:50:13;;;;;;;2.80;1.23;;;17.60;99.90;;;;;;4972181;28;20626;-64
2022/12/27 12:53:06;;;;;;;1.80;0.93;;;17.40;99.90;;;;;;4972015;28;20114;-63
2022/12/27 12:56:02;;;;;;;1.40;0.87;;;16.90;99.90;;;;;;5021540;28;20044;-63
2022/12/27 12:59:00;;;;;;;1.85;1.00;;;16.70;99.90;;;;;;5032994;28;20038;-64
2022/12/27 13:02:01;;;;;;;2.97;1.10;;;16.20;99.90;;;;;;5032814;28;20026;-64
2022/12/27 13:04:56;;;;;;;2.25;1.15;;;15.90;99.90;;;;;;5032567;28;20378;-63
2022/12/27 13:07:55;;;;;;;5.32;4.65;;;16.10;99.90;;;;;;5030833;28;20124;-63
2022/12/27 13:10:44;;;;;;;6.03;5.25;;;16.90;99.90;;;;;;5030305;28;20125;-64
2022/12/27 13:13:29;;;;;;;1.85;0.90;;;17.30;99.90;;;;;;5013553;28;20513;-64
2022/12/27 13:15:57;;;;;;;1.40;0.88;;;16.50;99.90;;;;;;5013636;28;20450;-63
2022/12/27 13:18:42;;;;;;;2.83;1.80;;;16.60;99.90;;;;;;5030354;28;20145;-63
2022/12/27 13:21:31;;;;;;;3.88;3.30;;;16.20;99.90;;;;;;5030825;28;20117;-63
2022/12/27 13:24:11;;;;;;;8.07;6.53;;;16.30;99.90;;;;;;5030515;28;20092;-63
2022/12/27 13:26:39;;;;;;;9.80;8.90;;;16.50;99.90;;;;;;5030286;28;20029;-63
2022/12/27 13:29:22;;;;;;;10.02;8.65;;;16.80;99.90;;;;;;5030132;28;20076;-63
2022/12/27 13:31:57;;;;;;;7.68;6.40;;;16.70;99.90;;;;;;5029723;28;20095;-63
2022/12/27 13:34:28;;;;;;;7.78;6.57;;;16.60;99.90;;;;;;5030632;28;20502;-63
2022/12/27 13:37:27;;;;;;;2.75;1.98;;;16.80;99.90;;;;;;5030030;28;20025;-63
2022/12/27 13:40:05;;;;;;;3.22;2.20;;;16.90;99.90;;;;;;5030036;28;20048;-63
2022/12/27 13:42:45;;;;;;;3.05;1.10;;;17.00;99.90;;;;;;5029954;28;20096;-64
2022/12/27 13:45:48;;;;;;;2.20;0.80;;;16.50;99.90;;;;;;5031342;28;20042;-63
2022/12/27 13:48:55;;;;;;;1.55;0.80;;;16.40;99.90;;;;;;5032253;28;20189;-63
2022/12/27 13:51:39;;;;;;;1.55;0.90;;;16.20;99.90;;;;;;5049757;28;20114;-63
2022/12/27 13:54:23;;;;;;;;;;;15.70;99.90;;;;;;5050169;28;20036;-63
2022/12/27 13:56:50;;;;;;;9.68;7.28;;;15.40;99.90;;;;;;5049517;28;20389;-63
2022/12/27 13:59:27;;;;;;;3.50;1.52;;;15.60;99.90;;;;;;5049316;28;20052;-63
2022/12/27 14:02:19;;;;;;;67.10;49.78;;;15.40;99.90;;;;;;5049597;28;20040;-63
2022/12/27 14:05:08;;;;;;;4.15;2.35;;;15.50;99.90;;;;;;5049938;28;20098;-63
2022/12/27 14:07:52;;;;;;;1.60;0.90;;;15.50;99.90;;;;;;5049783;28;20044;-63
2022/12/27 14:10:21;;;;;;;2.40;1.00;;;15.50;99.90;;;;;;5049375;28;20045;-63
2022/12/27 14:12:52;;;;;;;6.13;2.65;;;15.60;99.90;;;;;;5049928;28;20032;-63
2022/12/27 14:15:32;;;;;;;1.45;0.80;;;15.90;99.90;;;;;;5049135;28;20033;-63
2022/12/27 14:18:09;;;;;;;2.10;1.20;;;15.60;99.90;;;;;;5049885;28;20048;-63
2022/12/27 14:20:41;;;;;;;4.47;2.53;;;15.90;99.90;;;;;;5049852;28;20036;-63
2022/12/27 14:23:16;;;;;;;13.35;9.80;;;15.80;99.90;;;;;;5033584;28;20044;-63
2022/12/27 14:26:06;;;;;;;8.90;4.95;;;15.80;99.90;;;;;;5031841;28;20559;-63
2022/12/27 14:28:46;;;;;;;1.45;1.00;;;15.70;99.90;;;;;;5039391;28;20040;-64
2022/12/27 14:31:49;;;;;;;2.60;1.00;;;15.20;99.90;;;;;;5051801;28;20048;-63
2022/12/27 14:34:18;;;;;;;2.38;1.20;;;15.10;99.90;;;;;;5051758;28;20021;-63
2022/12/27 14:36:59;;;;;;;3.33;1.08;;;15.10;99.90;;;;;;5051898;28;20025;-64
2022/12/27 14:40:03;;;;;;;2.55;1.15;;;15.00;99.90;;;;;;5051959;28;20120;-64
2022/12/27 14:42:40;;;;;;;2.53;1.10;;;15.20;99.90;;;;;;5029641;28;20034;-63
2022/12/27 14:45:26;;;;;;;3.72;1.20;;;15.20;99.90;;;;;;5029477;28;20041;-63
2022/12/27 14:48:10;;;;;;;2.67;0.75;;;15.30;99.90;;;;;;5029750;28;20566;-63
2022/12/27 14:50:53;;;;;;;1.98;0.88;;;15.20;99.90;;;;;;5029996;28;20128;-63
2022/12/27 14:53:43;;;;;;;2.55;0.90;;;15.20;99.90;;;;;;5029182;28;20064;-64
2022/12/27 14:56:27;;;;;;;2.85;0.77;;;15.00;99.90;;;;;;5029150;28;20033;-63
2022/12/27 14:59:11;;;;;;;;;;;14.90;99.90;;;;;;5029417;28;20607;-63